Time;durP1;ratioP1;P1;durP2;ratioP2;P2;SDS_P1;SDS_P2;PMS_P1;PMS_P2;Temp;Humidity;BMP_temperature;BMP_pressure;BME280_temperature;BME280_humidity;BME280_pressure;Samples;Min_cycle;Max_cycle;Signal;HPM_P1;HPM_P2
2023/10/06 00:01:42;;;;;;;;;;;;;;;-147.89;100.00;60788.38;4232484;28;20368;-65
2023/10/06 00:03:44;;;;;;;;;;;;;;;-147.89;100.00;60788.38;4232286;28;19931;-65
2023/10/06 00:05:49;;;;;;;;;;;;;;;-147.89;100.00;60788.38;4232583;28;19989;-64
2023/10/06 00:07:51;;;;;;;;;;;;;;;-147.89;100.00;60788.38;4232322;28;19927;-64
2023/10/06 00:09:55;;;;;;;;;;;;;;;-147.89;100.00;60788.38;4232057;28;19930;-65
2023/10/06 00:11:57;;;;;;;;;;;;;;;-147.89;100.00;60788.38;4232128;28;19930;-65
2023/10/06 00:14:07;;;;;;;;;;;;;;;-147.89;100.00;60788.38;4231733;28;20349;-64
2023/10/06 00:16:09;;;;;;;;;;;;;;;-147.89;100.00;60788.38;4231920;28;19924;-64
2023/10/06 00:18:47;;;;;;;;;;;;;;;-147.89;100.00;60788.38;4232092;28;19931;-64
2023/10/06 00:20:39;;;;;;;;;;;;;;;-147.89;100.00;60788.38;4228966;28;19931;-65
2023/10/06 00:22:41;;;;;;;;;;;;;;;-147.89;100.00;60788.38;4247387;27;19923;-64
2023/10/06 00:24:43;;;;;;;;;;;;;;;-147.89;100.00;60788.38;4232132;28;19924;-64
2023/10/06 00:26:46;;;;;;;;;;;;;;;-147.89;100.00;60788.38;4231701;28;19981;-65
2023/10/06 00:28:47;;;;;;;;;;;;;;;-147.89;100.00;60788.38;4231803;28;19924;-64
2023/10/06 00:30:56;;;;;;;;;;;;;;;-147.89;100.00;60788.38;4232335;28;19927;-64
2023/10/06 00:33:00;;;;;;;;;;;;;;;-147.89;100.00;60788.38;4232002;28;19928;-65
2023/10/06 00:37:34;;;;;;;;;;;;;;;-147.89;100.00;60788.38;4218519;28;20014;-65
2023/10/06 00:39:36;;;;;;;;;;;;;;;-147.89;100.00;60788.38;4231655;28;19924;-64
2023/10/06 00:41:43;;;;;;;;;;;;;;;-147.89;100.00;60788.38;4231575;28;19930;-64
2023/10/06 00:43:45;;;;;;;;;;;;;;;-147.89;100.00;60788.38;4231482;28;20014;-64
2023/10/06 00:45:48;;;;;;;;;;;;;;;-147.89;100.00;60788.38;4231746;28;20010;-64
2023/10/06 00:47:53;;;;;;;;;;;;;;;-147.89;100.00;60788.38;4231547;28;20315;-64
2023/10/06 00:49:55;;;;;;;;;;;;;;;-147.89;100.00;60788.38;4231792;28;20335;-64
2023/10/06 00:51:59;;;;;;;;;;;;;;;-147.89;100.00;60788.38;4231574;28;20010;-65
2023/10/06 00:54:01;;;;;;;;;;;;;;;-147.89;100.00;60788.38;4231611;28;19923;-63
2023/10/06 00:56:08;;;;;;;;;;;;;;;-147.89;100.00;60788.38;4231649;28;20022;-64
2023/10/06 00:58:10;;;;;;;;;;;;;;;-147.89;100.00;60788.38;4231145;28;20346;-64
2023/10/06 01:00:20;;;;;;;;;;;;;;;-147.89;100.00;60788.38;4231533;28;20010;-64
2023/10/06 01:02:23;;;;;;;;;;;;;;;-147.89;100.00;60788.38;4231461;28;20022;-65
2023/10/06 01:04:25;;;;;;;;;;;;;;;-147.89;100.00;60788.38;4230974;28;20365;-65
2023/10/06 01:06:33;;;;;;;;;;;;;;;-147.89;100.00;60788.38;4231405;28;20037;-65
2023/10/06 01:08:35;;;;;;;;;;;;;;;-147.89;100.00;60788.38;4231223;28;19924;-65
2023/10/06 01:10:36;;;;;;;;;;;;;;;-147.89;100.00;60788.38;4231187;28;19923;-64
2023/10/06 01:12:39;;;;;;;;;;;;;;;-147.89;100.00;60788.38;4230956;28;20433;-64
2023/10/06 01:14:41;;;;;;;;;;;;;;;-147.89;100.00;60788.38;4230897;28;19924;-65
2023/10/06 01:16:43;;;;;;;;;;;;;;;-147.89;100.00;60788.38;4231056;28;19930;-64
2023/10/06 01:18:47;;;;;;;;;;;;;;;-147.89;100.00;60788.38;4231151;28;19924;-64
2023/10/06 01:20:49;;;;;;;;;;;;;;;-147.89;100.00;60788.38;4213168;28;19931;-64
2023/10/06 01:22:56;;;;;;;;;;;;;;;-147.89;100.00;60788.38;4230773;28;19931;-65
2023/10/06 01:25:04;;;;;;;;;;;;;;;-147.89;100.00;60788.38;4231053;28;19924;-64
2023/10/06 01:27:06;;;;;;;;;;;;;;;-147.89;100.00;60788.38;4230674;28;19928;-64
2023/10/06 01:29:13;;;;;;;;;;;;;;;-147.89;100.00;60788.38;4212987;28;19924;-64
2023/10/06 01:31:14;;;;;;;;;;;;;;;-147.89;100.00;60788.38;4231057;28;19923;-65
2023/10/06 01:33:16;;;;;;;;;;;;;;;-147.89;100.00;60788.38;4230922;28;20299;-64
2023/10/06 01:35:21;;;;;;;;;;;;;;;-147.89;100.00;60788.38;4231116;28;19924;-65
2023/10/06 01:37:22;;;;;;;;;;;;;;;-147.89;100.00;60788.38;4231162;28;20404;-64
2023/10/06 01:39:26;;;;;;;;;;;;;;;-147.89;100.00;60788.38;4231103;28;19924;-64
2023/10/06 01:41:28;;;;;;;;;;;;;;;-147.89;100.00;60788.38;4230433;28;19923;-64
2023/10/06 01:43:30;;;;;;;;;;;;;;;-147.89;100.00;60788.38;4230856;28;19935;-66
2023/10/06 01:45:32;;;;;;;;;;;;;;;-147.89;100.00;60788.38;4230598;28;19923;-64
2023/10/06 01:47:33;;;;;;;;;;;;;;;-147.89;100.00;60788.38;4230663;28;20018;-65
2023/10/06 01:49:35;;;;;;;;;;;;;;;-147.89;100.00;60788.38;4230757;28;20022;-64
2023/10/06 01:51:39;;;;;;;;;;;;;;;-147.89;100.00;60788.38;4230929;28;19923;-64
2023/10/06 01:53:41;;;;;;;;;;;;;;;-147.89;100.00;60788.38;4230817;28;19959;-64
2023/10/06 01:55:43;;;;;;;;;;;;;;;-147.89;100.00;60788.38;4230424;28;19985;-64
2023/10/06 01:57:45;;;;;;;;;;;;;;;-147.89;100.00;60788.38;4230704;28;20015;-64
2023/10/06 01:59:49;;;;;;;;;;;;;;;-147.89;100.00;60788.38;4230763;28;19928;-64
2023/10/06 02:01:50;;;;;;;;;;;;;;;-147.89;100.00;60788.38;4230738;28;19927;-64
2023/10/06 02:03:52;;;;;;;;;;;;;;;-147.89;100.00;60788.38;4230681;28;19973;-64
2023/10/06 02:05:54;;;;;;;;;;;;;;;-147.89;100.00;60788.38;4230580;28;20018;-66
2023/10/06 02:08:00;;;;;;;;;;;;;;;-147.89;100.00;60788.38;4230454;28;19951;-64
2023/10/06 02:10:02;;;;;;;;;;;;;;;-147.89;100.00;60788.38;4230248;28;20002;-65
2023/10/06 02:12:04;;;;;;;;;;;;;;;-147.89;100.00;60788.38;4230412;28;20015;-64
2023/10/06 02:14:06;;;;;;;;;;;;;;;-147.89;100.00;60788.38;4246406;27;20388;-64
2023/10/06 02:16:08;;;;;;;;;;;;;;;-147.89;100.00;60788.38;4230288;28;19928;-65
2023/10/06 02:18:12;;;;;;;;;;;;;;;-147.89;100.00;60788.38;4230536;28;19927;-65
2023/10/06 02:20:29;;;;;;;;;;;;;;;-147.89;100.00;60788.38;4230635;28;20045;-64
2023/10/06 02:22:30;;;;;;;;;;;;;;;-147.89;100.00;60788.38;4230159;28;19968;-63
2023/10/06 02:24:32;;;;;;;;;;;;;;;-147.89;100.00;60788.38;4229890;28;19924;-63
2023/10/06 02:26:37;;;;;;;;;;;;;;;-147.89;100.00;60788.38;4230514;28;20290;-63
2023/10/06 02:28:43;;;;;;;;;;;;;;;-147.89;100.00;60788.38;4230412;28;19999;-64
2023/10/06 02:30:51;;;;;;;;;;;;;;;-147.89;100.00;60788.38;4212202;28;19978;-64
2023/10/06 02:32:53;;;;;;;;;;;;;;;-147.89;100.00;60788.38;4230122;28;19924;-64
2023/10/06 02:34:55;;;;;;;;;;;;;;;-147.89;100.00;60788.38;4230349;28;19978;-64
2023/10/06 02:36:57;;;;;;;;;;;;;;;-147.89;100.00;60788.38;4230191;28;19966;-65
2023/10/06 02:39:05;;;;;;;;;;;;;;;-147.89;100.00;60788.38;4230007;28;19931;-64
2023/10/06 02:41:07;;;;;;;;;;;;;;;-147.89;100.00;60788.38;4230259;28;20107;-65
2023/10/06 02:43:10;;;;;;;;;;;;;;;-147.89;100.00;60788.38;4230257;28;20379;-64
2023/10/06 02:45:20;;;;;;;;;;;;;;;-147.89;100.00;60788.38;4230218;28;19924;-64
2023/10/06 02:47:26;;;;;;;;;;;;;;;-147.89;100.00;60788.38;4230022;28;20434;-64
2023/10/06 02:49:32;;;;;;;;;;;;;;;-147.89;100.00;60788.38;4230151;28;19935;-64
2023/10/06 02:51:33;;;;;;;;;;;;;;;-147.89;100.00;60788.38;4229195;28;19927;-64
2023/10/06 02:53:35;;;;;;;;;;;;;;;-147.89;100.00;60788.38;4211731;28;19924;-64
2023/10/06 02:55:36;;;;;;;;;;;;;;;-147.89;100.00;60788.38;4230280;28;20324;-64
2023/10/06 02:57:41;;;;;;;;;;;;;;;-147.89;100.00;60788.38;4230161;28;19931;-63
2023/10/06 02:59:43;;;;;;;;;;;;;;;-147.89;100.00;60788.38;4230083;28;20006;-65
2023/10/06 03:01:51;;;;;;;;;;;;;;;-147.89;100.00;60788.38;4230142;28;20007;-64
2023/10/06 03:04:05;;;;;;;;;;;;;;;-147.89;100.00;60788.38;4230037;28;19924;-65
2023/10/06 03:06:07;;;;;;;;;;;;;;;-147.89;100.00;60788.38;4229973;28;19978;-64
2023/10/06 03:08:09;;;;;;;;;;;;;;;-147.89;100.00;60788.38;4229688;28;19955;-64
2023/10/06 03:10:12;;;;;;;;;;;;;;;-147.89;100.00;60788.38;4230210;28;19992;-64
2023/10/06 03:12:26;;;;;;;;;;;;;;;-147.89;100.00;60788.38;4230099;28;20015;-65
2023/10/06 03:14:37;;;;;;;;;;;;;;;-147.89;100.00;60788.38;4229818;28;20388;-65
2023/10/06 03:16:42;;;;;;;;;;;;;;;-147.89;100.00;60788.38;4229742;28;19923;-65
2023/10/06 03:18:44;;;;;;;;;;;;;;;-147.89;100.00;60788.38;4229936;28;19924;-65
2023/10/06 03:20:47;;;;;;;;;;;;;;;-147.89;100.00;60788.38;4229986;28;19930;-64
2023/10/06 03:22:49;;;;;;;;;;;;;;;-147.89;100.00;60788.38;4229293;28;19949;-65
2023/10/06 03:24:57;;;;;;;;;;;;;;;-147.89;100.00;60788.38;4229929;28;19977;-65
2023/10/06 03:27:04;;;;;;;;;;;;;;;-147.89;100.00;60788.38;4230179;28;19924;-65
2023/10/06 03:29:11;;;;;;;;;;;;;;;-147.89;100.00;60788.38;4214703;28;20030;-65
2023/10/06 03:33:21;;;;;;;;;;;;;;;-147.89;100.00;60788.38;4232818;28;19923;-66
2023/10/06 03:40:11;;;;;;;;;;;;;;;-147.89;100.00;60788.38;4180179;28;19955;-65
2023/10/06 03:42:17;;;;;;;;;;;;;;;-147.89;100.00;60788.38;4180079;28;19975;-66
2023/10/06 03:44:26;;;;;;;;;;;;;;;-147.89;100.00;60788.38;4180602;28;19925;-65
2023/10/06 03:46:36;;;;;;;;;;;;;;;-147.89;100.00;60788.38;4180462;28;19996;-65
2023/10/06 03:48:38;;;;;;;;;;;;;;;-147.89;100.00;60788.38;4180709;28;19978;-65
2023/10/06 03:50:41;;;;;;;;;;;;;;;-147.89;100.00;60788.38;4179912;28;19925;-65
2023/10/06 03:52:47;;;;;;;;;;;;;;;-147.89;100.00;60788.38;4180158;28;19964;-65
2023/10/06 03:54:50;;;;;;;;;;;;;;;-147.89;100.00;60788.38;4180528;28;19925;-65
2023/10/06 03:56:51;;;;;;;;;;;;;;;-147.89;100.00;60788.38;4180502;28;19925;-64
2023/10/06 03:58:54;;;;;;;;;;;;;;;-147.89;100.00;60788.38;4180282;28;20297;-65
2023/10/06 04:00:55;;;;;;;;;;;;;;;-147.89;100.00;60788.38;4180093;28;20356;-66
2023/10/06 04:03:03;;;;;;;;;;;;;;;-147.89;100.00;60788.38;4180244;28;19929;-66
2023/10/06 04:05:06;;;;;;;;;;;;;;;-147.89;100.00;60788.38;4180092;28;19928;-65
2023/10/06 04:07:08;;;;;;;;;;;;;;;-147.89;100.00;60788.38;4180241;28;20490;-66
2023/10/06 04:09:11;;;;;;;;;;;;;;;-147.89;100.00;60788.38;4180204;28;20353;-66
2023/10/06 04:11:16;;;;;;;;;;;;;;;-147.89;100.00;60788.38;4180187;28;19925;-65
2023/10/06 04:13:18;;;;;;;;;;;;;;;-147.89;100.00;60788.38;4180315;28;19928;-66
2023/10/06 04:15:19;;;;;;;;;;;;;;;-147.89;100.00;60788.38;4194718;28;20374;-65
2023/10/06 04:17:21;;;;;;;;;;;;;;;-147.89;100.00;60788.38;4198331;28;19931;-65
2023/10/06 04:19:23;;;;;;;;;;;;;;;-147.89;100.00;60788.38;4215407;28;19924;-65
2023/10/06 04:21:24;;;;;;;;;;;;;;;-147.89;100.00;60788.38;4214883;28;20442;-66
2023/10/06 04:23:26;;;;;;;;;;;;;;;-147.89;100.00;60788.38;4214916;28;19925;-65
2023/10/06 04:25:28;;;;;;;;;;;;;;;-147.89;100.00;60788.38;4214978;28;19947;-66
2023/10/06 04:27:32;;;;;;;;;;;;;;;-147.89;100.00;60788.38;4215273;28;20361;-65
2023/10/06 04:29:35;;;;;;;;;;;;;;;-147.89;100.00;60788.38;4215281;28;19924;-65
2023/10/06 04:31:37;;;;;;;;;;;;;;;-147.89;100.00;60788.38;4215163;28;19978;-64
2023/10/06 04:33:39;;;;;;;;;;;;;;;-147.89;100.00;60788.38;4214920;28;19966;-66
2023/10/06 04:35:42;;;;;;;;;;;;;;;-147.89;100.00;60788.38;4214931;28;19928;-65
2023/10/06 04:37:46;;;;;;;;;;;;;;;-147.89;100.00;60788.38;4215162;28;19985;-65
2023/10/06 04:39:48;;;;;;;;;;;;;;;-147.89;100.00;60788.38;4213866;28;20441;-65
2023/10/06 04:41:49;;;;;;;;;;;;;;;-147.89;100.00;60788.38;4215024;28;19996;-66
2023/10/06 04:43:51;;;;;;;;;;;;;;;-147.89;100.00;60788.38;4214822;28;20267;-65
2023/10/06 04:45:55;;;;;;;;;;;;;;;-147.89;100.00;60788.38;4214756;28;19924;-66
2023/10/06 04:47:56;;;;;;;;;;;;;;;-147.89;100.00;60788.38;4214702;28;19928;-65
2023/10/06 04:49:58;;;;;;;;;;;;;;;-147.89;100.00;60788.38;4214645;28;19973;-65
2023/10/06 04:52:00;;;;;;;;;;;;;;;-147.89;100.00;60788.38;4214608;28;19932;-65
2023/10/06 04:54:02;;;;;;;;;;;;;;;-147.89;100.00;60788.38;4214727;28;19936;-66
2023/10/06 04:56:05;;;;;;;;;;;;;;;-147.89;100.00;60788.38;4214662;28;19928;-66
2023/10/06 04:58:13;;;;;;;;;;;;;;;-147.89;100.00;60788.38;4214616;28;19931;-65
2023/10/06 05:00:19;;;;;;;;;;;;;;;-147.89;100.00;60788.38;4214401;28;19975;-66
2023/10/06 05:02:22;;;;;;;;;;;;;;;-147.89;100.00;60788.38;4214792;28;19934;-65
2023/10/06 05:04:23;;;;;;;;;;;;;;;-147.89;100.00;60788.38;4214197;28;20298;-65
2023/10/06 05:06:25;;;;;;;;;;;;;;;-147.89;100.00;60788.38;4214598;28;19974;-65
2023/10/06 05:08:27;;;;;;;;;;;;;;;-147.89;100.00;60788.38;4214469;28;19973;-65
2023/10/06 05:10:30;;;;;;;;;;;;;;;-147.89;100.00;60788.38;4214578;28;19928;-66
2023/10/06 05:12:32;;;;;;;;;;;;;;;-147.89;100.00;60788.38;4214563;28;20026;-66
2023/10/06 05:14:34;;;;;;;;;;;;;;;-147.89;100.00;60788.38;4223102;28;20404;-65
2023/10/06 05:16:36;;;;;;;;;;;;;;;-147.89;100.00;60788.38;4231155;28;20397;-66
2023/10/06 05:18:40;;;;;;;;;;;;;;;-147.89;100.00;60788.38;4230935;28;20019;-65
2023/10/06 05:20:42;;;;;;;;;;;;;;;-147.89;100.00;60788.38;4231110;28;19949;-66
2023/10/06 05:22:44;;;;;;;;;;;;;;;-147.89;100.00;60788.38;4231021;28;20021;-65
2023/10/06 05:24:47;;;;;;;;;;;;;;;-147.89;100.00;60788.38;4231293;28;20438;-65
2023/10/06 05:26:50;;;;;;;;;;;;;;;-147.89;100.00;60788.38;4231311;28;19985;-66
2023/10/06 05:28:51;;;;;;;;;;;;;;;-147.89;100.00;60788.38;4231120;28;19930;-66
2023/10/06 05:30:53;;;;;;;;;;;;;;;-147.89;100.00;60788.38;4231503;28;19923;-65
2023/10/06 05:32:59;;;;;;;;;;;;;;;-147.89;100.00;60788.38;4230618;28;19923;-66
2023/10/06 05:35:01;;;;;;;;;;;;;;;-147.89;100.00;60788.38;4230956;28;19923;-65
2023/10/06 05:37:03;;;;;;;;;;;;;;;-147.89;100.00;60788.38;4230923;28;19931;-66
2023/10/06 05:39:05;;;;;;;;;;;;;;;-147.89;100.00;60788.38;4230918;28;19927;-66
2023/10/06 05:41:11;;;;;;;;;;;;;;;-147.89;100.00;60788.38;4211923;28;20478;-65
2023/10/06 05:43:17;;;;;;;;;;;;;;;-147.89;100.00;60788.38;4230710;28;20426;-66
2023/10/06 05:45:19;;;;;;;;;;;;;;;-147.89;100.00;60788.38;4230744;28;19931;-66
2023/10/06 05:47:21;;;;;;;;;;;;;;;-147.89;100.00;60788.38;4230336;28;20315;-66
2023/10/06 05:49:22;;;;;;;;;;;;;;;-147.89;100.00;60788.38;4246250;27;19930;-65
2023/10/06 05:51:24;;;;;;;;;;;;;;;-147.89;100.00;60788.38;4230497;28;19924;-65
2023/10/06 05:53:30;;;;;;;;;;;;;;;-147.89;100.00;60788.38;4230540;28;19923;-66
2023/10/06 05:55:33;;;;;;;;;;;;;;;-147.89;100.00;60788.38;4230602;28;19967;-65
2023/10/06 05:57:38;;;;;;;;;;;;;;;-147.89;100.00;60788.38;4231152;28;19928;-66
2023/10/06 05:59:40;;;;;;;;;;;;;;;-147.89;100.00;60788.38;4230465;28;19924;-65
2023/10/06 06:01:45;;;;;;;;;;;;;;;-147.89;100.00;60788.38;4230219;28;19930;-66
2023/10/06 06:03:46;;;;;;;;;;;;;;;-147.89;100.00;60788.38;4230705;28;19930;-64
2023/10/06 06:05:50;;;;;;;;;;;;;;;-147.89;100.00;60788.38;4230667;28;19980;-66
2023/10/06 06:07:51;;;;;;;;;;;;;;;-147.89;100.00;60788.38;4230681;28;20000;-66
2023/10/06 06:09:53;;;;;;;;;;;;;;;-147.89;100.00;60788.38;4230615;28;19924;-66
2023/10/06 06:11:54;;;;;;;;;;;;;;;-147.89;100.00;60788.38;4230303;28;19930;-67
2023/10/06 06:13:57;;;;;;;;;;;;;;;-147.89;100.00;60788.38;4230314;28;20101;-65
2023/10/06 06:16:18;;;;;;;;;;;;;;;-147.89;100.00;60788.38;4230363;28;19924;-65
2023/10/06 06:18:20;;;;;;;;;;;;;;;-147.89;100.00;60788.38;4230275;28;20018;-65
2023/10/06 06:20:22;;;;;;;;;;;;;;;-147.89;100.00;60788.38;4230442;28;20257;-66
2023/10/06 06:22:24;;;;;;;;;;;;;;;-147.89;100.00;60788.38;4230266;28;19924;-65
2023/10/06 06:24:27;;;;;;;;;;;;;;;-147.89;100.00;60788.38;4230519;28;19947;-65
2023/10/06 06:26:29;;;;;;;;;;;;;;;-147.89;100.00;60788.38;4230376;28;19977;-68
2023/10/06 06:28:31;;;;;;;;;;;;;;;-147.89;100.00;60788.38;4230442;28;19927;-66
2023/10/06 06:30:34;;;;;;;;;;;;;;;-147.89;100.00;60788.38;4230178;28;19971;-66
2023/10/06 06:32:36;;;;;;;;;;;;;;;-147.89;100.00;60788.38;4245963;28;19930;-66
2023/10/06 06:34:53;;;;;;;;;;;;;;;-147.89;100.00;60788.38;4230721;28;20297;-66
2023/10/06 06:37:17;;;;;;;;;;;;;;;-147.89;100.00;60788.38;4230388;28;19923;-66
2023/10/06 06:39:44;;;;;;;;;;;;;;;-147.89;100.00;60788.38;4230557;28;19935;-66
2023/10/06 06:41:45;;;;;;;;;;;;;;;-147.89;100.00;60788.38;4230182;28;19959;-66
2023/10/06 06:43:47;;;;;;;;;;;;;;;-147.89;100.00;60788.38;4230141;28;19924;-66
2023/10/06 06:45:48;;;;;;;;;;;;;;;-147.89;100.00;60788.38;4245530;28;19970;-67
2023/10/06 06:47:50;;;;;;;;;;;;;;;-147.89;100.00;60788.38;4230191;28;19940;-66
2023/10/06 06:49:52;;;;;;;;;;;;;;;-147.89;100.00;60788.38;4229972;28;19923;-66
2023/10/06 06:51:53;;;;;;;;;;;;;;;-147.89;100.00;60788.38;4230130;28;19931;-66
2023/10/06 06:53:58;;;;;;;;;;;;;;;-147.89;100.00;60788.38;4230147;28;20274;-66
2023/10/06 06:55:59;;;;;;;;;;;;;;;-147.89;100.00;60788.38;4230292;28;20490;-66
2023/10/06 06:58:06;;;;;;;;;;;;;;;-147.89;100.00;60788.38;4230199;28;19924;-67
2023/10/06 07:00:15;;;;;;;;;;;;;;;-147.89;100.00;60788.38;4230035;28;19959;-66
2023/10/06 07:02:17;;;;;;;;;;;;;;;-147.89;100.00;60788.38;4230966;28;20421;-66
2023/10/06 07:04:18;;;;;;;;;;;;;;;-147.89;100.00;60788.38;4233246;28;19924;-66
2023/10/06 07:06:21;;;;;;;;;;;;;;;-147.89;100.00;60788.38;4233328;28;19924;-66
2023/10/06 07:08:23;;;;;;;;;;;;;;;-147.89;100.00;60788.38;4233420;28;19923;-66
2023/10/06 07:10:25;;;;;;;;;;;;;;;-147.89;100.00;60788.38;4233363;28;20490;-66
2023/10/06 07:12:28;;;;;;;;;;;;;;;-147.89;100.00;60788.38;4233338;28;19924;-66
2023/10/06 07:14:30;;;;;;;;;;;;;;;-147.89;100.00;60788.38;4232566;28;19931;-66
2023/10/06 07:16:33;;;;;;;;;;;;;;;-147.89;100.00;60788.38;4215039;28;19928;-66
2023/10/06 07:18:36;;;;;;;;;;;;;;;-147.89;100.00;60788.38;4233284;28;19985;-66
2023/10/06 07:20:38;;;;;;;;;;;;;;;-147.89;100.00;60788.38;4232980;28;19927;-66
2023/10/06 07:22:46;;;;;;;;;;;;;;;-147.89;100.00;60788.38;4233003;28;19966;-67
2023/10/06 07:24:55;;;;;;;;;;;;;;;-147.89;100.00;60788.38;4233061;28;20392;-66
2023/10/06 07:26:56;;;;;;;;;;;;;;;-147.89;100.00;60788.38;4232917;28;19949;-66
2023/10/06 07:28:59;;;;;;;;;;;;;;;-147.89;100.00;60788.38;4232797;28;19924;-67
2023/10/06 07:31:04;;;;;;;;;;;;;;;-147.89;100.00;60788.38;4232506;28;20207;-66
2023/10/06 07:33:08;;;;;;;;;;;;;;;-147.89;100.00;60788.38;4233093;28;19935;-66
2023/10/06 07:35:14;;;;;;;;;;;;;;;-147.89;100.00;60788.38;4232976;28;20234;-66
2023/10/06 07:37:17;;;;;;;;;;;;;;;-147.89;100.00;60788.38;4232739;28;20012;-66
2023/10/06 07:39:20;;;;;;;;;;;;;;;-147.89;100.00;60788.38;4248535;27;20017;-66
2023/10/06 07:41:23;;;;;;;;;;;;;;;-147.89;100.00;60788.38;4232869;28;19936;-65
2023/10/06 07:43:26;;;;;;;;;;;;;;;-147.89;100.00;60788.38;4232469;28;19928;-66
2023/10/06 07:45:27;;;;;;;;;;;;;;;-147.89;100.00;60788.38;4232688;28;19924;-66
2023/10/06 07:47:31;;;;;;;;;;;;;;;-147.89;100.00;60788.38;4232679;28;19924;-66
2023/10/06 07:49:34;;;;;;;;;;;;;;;-147.89;100.00;60788.38;4232548;28;19977;-66
2023/10/06 07:51:35;;;;;;;;;;;;;;;-147.89;100.00;60788.38;4232818;28;19966;-66
2023/10/06 07:53:38;;;;;;;;;;;;;;;-147.89;100.00;60788.38;4232627;28;20415;-66
2023/10/06 07:55:40;;;;;;;;;;;;;;;-147.89;100.00;60788.38;4232692;28;19928;-66
2023/10/06 07:57:46;;;;;;;;;;;;;;;-147.89;100.00;60788.38;4232171;28;19924;-65
2023/10/06 07:59:48;;;;;;;;;;;;;;;-147.89;100.00;60788.38;4232417;28;20348;-65
2023/10/06 08:01:49;;;;;;;;;;;;;;;-147.89;100.00;60788.38;4232397;28;20345;-66
2023/10/06 08:03:51;;;;;;;;;;;;;;;-147.89;100.00;60788.38;4232354;28;19963;-65
2023/10/06 08:05:52;;;;;;;;;;;;;;;-147.89;100.00;60788.38;4232471;28;19924;-65
2023/10/06 08:07:54;;;;;;;;;;;;;;;-147.89;100.00;60788.38;4232456;28;19930;-66
2023/10/06 08:09:58;;;;;;;;;;;;;;;-147.89;100.00;60788.38;4232266;28;20023;-65
2023/10/06 08:11:59;;;;;;;;;;;;;;;-147.89;100.00;60788.38;4232176;28;20430;-65
2023/10/06 08:14:03;;;;;;;;;;;;;;;-147.89;100.00;60788.38;4232027;28;19945;-68
2023/10/06 08:16:07;;;;;;;;;;;;;;;-147.89;100.00;60788.38;4232190;28;20412;-65
2023/10/06 08:18:09;;;;;;;;;;;;;;;-147.89;100.00;60788.38;4231991;28;19930;-65
2023/10/06 08:20:12;;;;;;;;;;;;;;;-147.89;100.00;60788.38;4232232;28;20464;-65
2023/10/06 08:22:15;;;;;;;;;;;;;;;-147.89;100.00;60788.38;4232083;28;19924;-65
2023/10/06 08:24:17;;;;;;;;;;;;;;;-147.89;100.00;60788.38;4232196;28;19923;-66
2023/10/06 08:26:19;;;;;;;;;;;;;;;-147.89;100.00;60788.38;4231706;28;20006;-65
2023/10/06 08:28:20;;;;;;;;;;;;;;;-147.89;100.00;60788.38;4214005;28;19958;-66
2023/10/06 08:30:22;;;;;;;;;;;;;;;-147.89;100.00;60788.38;4232037;28;19976;-66
2023/10/06 08:32:24;;;;;;;;;;;;;;;-147.89;100.00;60788.38;4231987;28;20416;-66
2023/10/06 08:34:27;;;;;;;;;;;;;;;-147.89;100.00;60788.38;4232002;28;20442;-66
2023/10/06 08:36:29;;;;;;;;;;;;;;;-147.89;100.00;60788.38;4231778;28;19924;-66
2023/10/06 08:38:32;;;;;;;;;;;;;;;-147.89;100.00;60788.38;4231883;28;20401;-66
2023/10/06 08:40:36;;;;;;;;;;;;;;;-147.89;100.00;60788.38;4231454;28;19977;-66
2023/10/06 08:42:40;;;;;;;;;;;;;;;-147.89;100.00;60788.38;4232171;28;19924;-66
2023/10/06 08:44:44;;;;;;;;;;;;;;;-147.89;100.00;60788.38;4231828;28;19924;-66
2023/10/06 08:46:47;;;;;;;;;;;;;;;-147.89;100.00;60788.38;4231879;28;19976;-66
2023/10/06 08:48:50;;;;;;;;;;;;;;;-147.89;100.00;60788.38;4231417;28;19977;-66
2023/10/06 08:50:55;;;;;;;;;;;;;;;-147.89;100.00;60788.38;4231772;28;19959;-66
2023/10/06 08:52:57;;;;;;;;;;;;;;;-147.89;100.00;60788.38;4231767;28;19927;-66
2023/10/06 08:54:59;;;;;;;;;;;;;;;-147.89;100.00;60788.38;4231667;28;19924;-65
2023/10/06 08:57:00;;;;;;;;;;;;;;;-147.89;100.00;60788.38;4231599;28;19928;-66
2023/10/06 08:59:02;;;;;;;;;;;;;;;-147.89;100.00;60788.38;4231469;28;20006;-67
2023/10/06 09:01:07;;;;;;;;;;;;;;;-147.89;100.00;60788.38;4231596;28;19924;-65
2023/10/06 09:03:16;;;;;;;;;;;;;;;-147.89;100.00;60788.38;4231214;28;19923;-66
2023/10/06 09:05:18;;;;;;;;;;;;;;;-147.89;100.00;60788.38;4231545;28;19984;-66
2023/10/06 09:07:21;;;;;;;;;;;;;;;-147.89;100.00;60788.38;4213560;28;20011;-66
2023/10/06 09:09:28;;;;;;;;;;;;;;;-147.89;100.00;60788.38;4231437;28;19970;-65
2023/10/06 09:11:36;;;;;;;;;;;;;;;-147.89;100.00;60788.38;4231086;28;19924;-66
2023/10/06 09:13:38;;;;;;;;;;;;;;;-147.89;100.00;60788.38;4231223;28;19931;-65
2023/10/06 09:15:40;;;;;;;;;;;;;;;-147.89;100.00;60788.38;4231397;28;19928;-65
2023/10/06 09:17:42;;;;;;;;;;;;;;;-147.89;100.00;60788.38;4225731;28;19935;-66
2023/10/06 09:19:50;;;;;;;;;;;;;;;-147.89;100.00;60788.38;4231244;28;19931;-65
2023/10/06 09:22:02;;;;;;;;;;;;;;;-147.89;100.00;60788.38;4231247;28;19923;-64
2023/10/06 09:24:19;;;;;;;;;;;;;;;-147.89;100.00;60788.38;4230828;28;20388;-64
2023/10/06 09:26:28;;;;;;;;;;;;;;;-147.89;100.00;60788.38;4230901;28;19938;-64
2023/10/06 09:28:31;;;;;;;;;;;;;;;-147.89;100.00;60788.38;4230924;28;19931;-64
2023/10/06 09:30:47;;;;;;;;;;;;;;;-147.89;100.00;60788.38;4213015;28;19946;-65
2023/10/06 09:33:00;;;;;;;;;;;;;;;-147.89;100.00;60788.38;4230900;28;20270;-65
2023/10/06 09:35:21;;;;;;;;;;;;;;;-147.89;100.00;60788.38;4231211;28;19934;-63
2023/10/06 09:37:24;;;;;;;;;;;;;;;-147.89;100.00;60788.38;4231010;28;19928;-64
2023/10/06 09:39:26;;;;;;;;;;;;;;;-147.89;100.00;60788.38;4212720;28;19931;-63
2023/10/06 09:41:29;;;;;;;;;;;;;;;-147.89;100.00;60788.38;4230753;28;19923;-65
2023/10/06 09:43:33;;;;;;;;;;;;;;;-147.89;100.00;60788.38;4230659;28;20300;-65
2023/10/06 09:45:36;;;;;;;;;;;;;;;-147.89;100.00;60788.38;4230899;28;20381;-65
2023/10/06 09:47:40;;;;;;;;;;;;;;;-147.89;100.00;60788.38;4230693;28;19923;-65
2023/10/06 09:49:42;;;;;;;;;;;;;;;-147.89;100.00;60788.38;4230622;28;19934;-63
2023/10/06 09:51:45;;;;;;;;;;;;;;;-147.89;100.00;60788.38;4212836;28;19924;-65
2023/10/06 09:53:47;;;;;;;;;;;;;;;-147.89;100.00;60788.38;4230391;28;19924;-65
2023/10/06 09:55:52;;;;;;;;;;;;;;;-147.89;100.00;60788.38;4231168;28;19963;-65
2023/10/06 09:57:53;;;;;;;;;;;;;;;-147.89;100.00;60788.38;4230775;28;20018;-65
2023/10/06 09:59:55;;;;;;;;;;;;;;;-147.89;100.00;60788.38;4230568;28;19923;-65
2023/10/06 10:01:58;;;;;;;;;;;;;;;-147.89;100.00;60788.38;4230595;28;20288;-65
2023/10/06 10:04:03;;;;;;;;;;;;;;;-147.89;100.00;60788.38;4230667;28;20316;-65
2023/10/06 10:06:05;;;;;;;;;;;;;;;-147.89;100.00;60788.38;4230524;28;20296;-65
2023/10/06 10:08:07;;;;;;;;;;;;;;;-147.89;100.00;60788.38;4230343;28;19928;-65
2023/10/06 10:10:13;;;;;;;;;;;;;;;-147.89;100.00;60788.38;4230623;28;19927;-65
2023/10/06 10:12:14;;;;;;;;;;;;;;;-147.89;100.00;60788.38;4230595;28;19930;-64
2023/10/06 10:14:22;;;;;;;;;;;;;;;-147.89;100.00;60788.38;4230272;28;19931;-65
2023/10/06 10:16:42;;;;;;;;;;;;;;;-147.89;100.00;60788.38;4230556;28;20018;-64
2023/10/06 10:18:49;;;;;;;;;;;;;;;-147.89;100.00;60788.38;4230461;28;20450;-64
2023/10/06 10:20:51;;;;;;;;;;;;;;;-147.89;100.00;60788.38;4230468;28;19935;-65
2023/10/06 10:22:56;;;;;;;;;;;;;;;-147.89;100.00;60788.38;4229829;28;20015;-65
2023/10/06 10:24:59;;;;;;;;;;;;;;;-147.89;100.00;60788.38;4230471;28;20083;-65
2023/10/06 10:27:23;;;;;;;;;;;;;;;-147.89;100.00;60788.38;4230591;28;19981;-65
2023/10/06 10:29:28;;;;;;;;;;;;;;;-147.89;100.00;60788.38;4230435;28;20339;-66
2023/10/06 10:31:36;;;;;;;;;;;;;;;-147.89;100.00;60788.38;4230333;28;19930;-66